createdAt,value
2018-02-21T00:01:08.764Z,60.67
2018-02-21T00:03:36.258Z,52.57
2018-02-21T00:06:03.737Z,58.77
2018-02-21T00:08:31.212Z,50.83
2018-02-21T00:10:58.704Z,53.07
2018-02-21T00:13:26.175Z,52.33
2018-02-21T00:15:53.655Z,45.50
2018-02-21T00:18:21.218Z,48.90
2018-02-21T00:20:48.728Z,54.03
2018-02-21T00:23:16.194Z,55.00
2018-02-21T00:25:43.674Z,52.50
2018-02-21T00:28:11.149Z,53.07
2018-02-21T00:30:38.675Z,48.97
2018-02-21T00:33:06.140Z,51.27
2018-02-21T00:35:33.631Z,57.67
2018-02-21T00:38:01.107Z,46.67
2018-02-21T00:40:28.614Z,49.50
2018-02-21T00:42:56.078Z,47.13
2018-02-21T00:45:23.563Z,45.00
2018-02-21T00:47:51.041Z,45.93
2018-02-21T00:50:18.626Z,46.43
2018-02-21T00:52:46.109Z,45.37
2018-02-21T00:55:13.574Z,45.33
2018-02-21T00:57:41.055Z,49.17
2018-02-21T01:00:08.621Z,48.50
2018-02-21T01:02:36.099Z,53.53
2018-02-21T01:05:03.667Z,54.37
2018-02-21T01:07:31.185Z,52.63
2018-02-21T01:09:58.661Z,53.17
2018-02-21T01:12:26.146Z,50.97
2018-02-21T01:14:53.633Z,51.47
2018-02-21T01:17:21.129Z,51.93
2018-02-21T01:19:48.698Z,49.87
2018-02-21T01:22:16.197Z,54.10
2018-02-21T01:24:43.731Z,54.83
2018-02-21T01:27:11.311Z,47.23
2018-02-21T01:29:38.801Z,45.70
2018-02-21T01:32:06.360Z,50.40
2018-02-21T01:34:33.833Z,48.70
2018-02-21T01:37:01.396Z,55.97
2018-02-21T01:39:28.963Z,46.93
2018-02-21T01:41:56.556Z,51.20
2018-02-21T01:44:24.216Z,44.57
2018-02-21T01:46:51.795Z,49.60
2018-02-21T01:49:19.266Z,51.43
2018-02-21T01:51:46.744Z,50.70
2018-02-21T01:54:14.344Z,49.67
2018-02-21T01:56:41.879Z,51.80
2018-02-21T01:59:09.355Z,51.57
2018-02-21T02:01:36.842Z,53.10
2018-02-21T02:04:04.313Z,48.90
2018-02-21T02:06:31.802Z,56.93
2018-02-21T02:08:59.306Z,47.03
2018-02-21T02:11:26.791Z,48.00
2018-02-21T02:13:54.282Z,52.23
2018-02-21T02:16:21.777Z,48.70
2018-02-21T02:18:49.259Z,50.67
2018-02-21T02:21:16.789Z,50.87
2018-02-21T02:23:44.365Z,50.63
2018-02-21T02:26:11.943Z,52.20
2018-02-21T02:28:39.525Z,62.03
2018-02-21T02:31:07.088Z,54.80
2018-02-21T02:33:34.754Z,54.43
2018-02-21T02:36:02.225Z,45.83
2018-02-21T02:41:32.499Z,60.17
2018-02-21T02:44:00.161Z,52.87
2018-02-21T02:46:27.661Z,68.50
2018-02-21T02:48:55.133Z,48.03
2018-02-21T02:51:22.672Z,52.40
2018-02-21T02:53:50.144Z,56.47
2018-02-21T02:56:17.620Z,57.10
2018-02-21T02:58:45.096Z,51.43
2018-02-21T03:01:12.570Z,55.57
2018-02-21T03:03:40.072Z,52.80
2018-02-21T03:06:07.632Z,54.30
2018-02-21T03:08:35.098Z,58.50
2018-02-21T03:11:02.675Z,52.87
2018-02-21T03:13:30.143Z,53.90
2018-02-21T03:15:59.969Z,54.27
2018-02-21T03:18:27.514Z,55.60
2018-02-21T03:20:54.981Z,58.20
2018-02-21T03:23:22.490Z,49.77
2018-02-21T03:25:50.068Z,52.40
2018-02-21T03:28:17.617Z,48.63
2018-02-21T03:30:45.128Z,45.17
2018-02-21T03:33:12.667Z,52.93
2018-02-21T03:35:40.205Z,54.43
2018-02-21T03:38:07.729Z,48.03
2018-02-21T03:40:35.210Z,57.60
2018-02-21T03:43:02.717Z,53.50
2018-02-21T03:45:30.180Z,55.40
2018-02-21T03:47:57.650Z,47.37
2018-02-21T03:50:25.177Z,50.07
2018-02-21T03:52:52.653Z,55.33
2018-02-21T03:55:20.538Z,52.67
2018-02-21T03:57:48.043Z,58.13
2018-02-21T04:00:15.545Z,55.67
2018-02-21T04:02:43.059Z,52.63
2018-02-21T04:05:10.520Z,56.93
2018-02-21T04:07:38.998Z,60.00
2018-02-21T04:10:06.524Z,57.57
2018-02-21T04:12:34.081Z,58.27
2018-02-21T04:15:01.864Z,53.80
2018-02-21T04:17:29.365Z,63.00
2018-02-21T04:19:56.866Z,65.73
2018-02-21T04:22:24.383Z,60.17
2018-02-21T04:24:51.869Z,62.77
2018-02-21T04:27:19.490Z,58.37
2018-02-21T04:29:47.013Z,58.57
2018-02-21T04:32:14.585Z,66.63
2018-02-21T04:34:42.103Z,47.57
2018-02-21T04:37:09.569Z,64.67
2018-02-21T04:39:37.070Z,55.17
2018-02-21T04:42:04.608Z,57.60
2018-02-21T04:44:32.113Z,66.50
2018-02-21T04:46:59.688Z,59.13
2018-02-21T04:49:27.161Z,63.47
2018-02-21T04:51:54.690Z,60.80
2018-02-21T04:57:40.983Z,57.67
2018-02-21T05:00:09.838Z,65.50
2018-02-21T05:02:37.353Z,58.47
2018-02-21T05:05:04.819Z,61.67
2018-02-21T05:07:32.386Z,56.53
2018-02-21T05:09:59.893Z,61.63
2018-02-21T05:12:27.391Z,59.53
2018-02-21T05:14:55.002Z,54.33
2018-02-21T05:17:22.483Z,55.10
2018-02-21T05:19:49.983Z,57.70
2018-02-21T05:22:17.449Z,70.43
2018-02-21T05:24:44.962Z,55.37
2018-02-21T05:27:12.437Z,63.13
2018-02-21T05:29:39.931Z,59.60
2018-02-21T05:32:07.406Z,61.10
2018-02-21T05:34:34.877Z,57.03
2018-02-21T05:37:02.426Z,54.77
2018-02-21T05:39:29.917Z,57.07
2018-02-21T05:41:57.465Z,56.43
2018-02-21T05:44:25.342Z,59.23
2018-02-21T05:46:52.858Z,73.20
2018-02-21T05:49:20.342Z,68.00
2018-02-21T05:51:47.854Z,67.93
2018-02-21T05:54:15.427Z,73.17
2018-02-21T05:56:42.993Z,62.03
2018-02-21T05:59:10.480Z,58.83
2018-02-21T06:01:37.987Z,70.70
2018-02-21T06:04:05.464Z,67.13
2018-02-21T06:06:32.935Z,62.53
2018-02-21T06:09:00.439Z,73.37
2018-02-21T06:11:27.906Z,61.97
2018-02-21T06:13:55.380Z,68.63
2018-02-21T06:16:22.871Z,65.57
2018-02-21T06:18:50.364Z,66.93
2018-02-21T06:21:17.859Z,65.53
2018-02-21T06:23:45.429Z,68.97
2018-02-21T06:26:12.975Z,65.17
2018-02-21T06:28:40.501Z,72.20
2018-02-21T06:31:08.405Z,73.20
2018-02-21T06:33:35.879Z,74.17
2018-02-21T06:36:03.349Z,66.97
2018-02-21T06:38:30.868Z,72.63
2018-02-21T06:40:58.298Z,64.37
2018-02-21T06:43:25.847Z,70.97
2018-02-21T06:45:53.339Z,63.73
2018-02-21T06:48:20.853Z,58.97
2018-02-21T06:50:48.317Z,63.30
2018-02-21T06:53:15.800Z,54.63
2018-02-21T06:55:43.315Z,64.97
2018-02-21T06:58:10.848Z,69.87
2018-02-21T07:00:38.504Z,63.27
2018-02-21T07:03:05.976Z,59.57
2018-02-21T07:05:33.459Z,63.57
2018-02-21T07:08:01.125Z,63.60
2018-02-21T07:10:28.618Z,70.83
2018-02-21T07:12:56.125Z,58.10
2018-02-21T07:15:23.749Z,53.80
2018-02-21T07:17:51.208Z,64.97
2018-02-21T07:20:18.692Z,55.00
2018-02-21T07:22:46.154Z,55.43
2018-02-21T07:25:13.684Z,53.77
2018-02-21T07:27:41.166Z,65.83
2018-02-21T07:30:08.631Z,59.70
2018-02-21T07:32:36.110Z,65.70
2018-02-21T07:35:03.591Z,72.33
2018-02-21T07:37:31.067Z,63.33
2018-02-21T07:39:58.548Z,62.70
2018-02-21T07:42:26.136Z,56.60
2018-02-21T07:44:53.630Z,59.60
2018-02-21T07:47:21.140Z,67.23
2018-02-21T07:49:48.639Z,59.17
2018-02-21T07:52:16.130Z,65.63
2018-02-21T07:54:43.613Z,59.70
2018-02-21T07:57:11.099Z,68.03
2018-02-21T07:59:38.569Z,68.27
2018-02-21T08:02:06.062Z,68.23
2018-02-21T08:04:35.361Z,68.43
2018-02-21T08:07:02.833Z,65.90
2018-02-21T08:09:30.319Z,70.53
2018-02-21T08:11:57.877Z,69.90
2018-02-21T08:14:25.361Z,68.27
2018-02-21T08:16:53.114Z,72.30
2018-02-21T08:19:20.616Z,65.20
2018-02-21T08:21:48.119Z,69.07
2018-02-21T08:24:15.592Z,68.87
2018-02-21T08:26:43.105Z,70.07
2018-02-21T08:29:10.589Z,81.40
2018-02-21T08:31:38.078Z,72.80
2018-02-21T08:34:05.643Z,76.03
2018-02-21T08:36:33.152Z,82.00
2018-02-21T08:39:00.675Z,82.00
2018-02-21T08:41:28.145Z,77.80
2018-02-21T08:43:55.634Z,76.87
2018-02-21T08:46:23.115Z,71.50
2018-02-21T08:48:50.662Z,74.87
2018-02-21T08:51:18.229Z,75.10
2018-02-21T08:53:45.708Z,78.83
2018-02-21T08:56:13.270Z,74.00
2018-02-21T08:58:40.745Z,78.87
2018-02-21T09:01:08.355Z,72.07
2018-02-21T09:03:35.857Z,70.20
2018-02-21T09:06:03.355Z,66.83
2018-02-21T09:08:30.832Z,74.77
2018-02-21T09:10:58.335Z,65.77
2018-02-21T09:13:25.795Z,74.17
2018-02-21T09:15:53.354Z,78.27
2018-02-21T09:18:20.826Z,72.03
2018-02-21T09:20:48.389Z,73.10
2018-02-21T09:23:15.970Z,83.70
2018-02-21T09:25:43.539Z,77.13
2018-02-21T09:28:11.017Z,67.87
2018-02-21T09:30:38.986Z,68.93
2018-02-21T09:33:06.464Z,75.57
2018-02-21T09:35:33.930Z,70.47
2018-02-21T09:38:01.404Z,60.53
2018-02-21T09:40:28.966Z,65.00
2018-02-21T09:42:56.541Z,67.80
2018-02-21T09:45:24.126Z,68.60
2018-02-21T09:47:51.621Z,66.40
2018-02-21T09:50:19.178Z,61.47
2018-02-21T09:52:46.730Z,59.80
2018-02-21T09:55:14.247Z,66.97
2018-02-21T09:57:41.729Z,64.93
2018-02-21T10:00:09.198Z,58.97
2018-02-21T10:02:36.664Z,63.50
2018-02-21T10:05:04.190Z,61.47
2018-02-21T10:07:31.761Z,74.10
2018-02-21T10:09:59.246Z,67.23
2018-02-21T10:12:26.783Z,61.63
2018-02-21T10:14:54.268Z,59.57
2018-02-21T10:17:21.747Z,58.10
2018-02-21T10:19:49.257Z,54.60
2018-02-21T10:22:16.746Z,58.30
2018-02-21T10:24:44.264Z,58.67
2018-02-21T10:27:11.729Z,54.93
2018-02-21T10:29:39.310Z,61.87
2018-02-21T10:32:06.879Z,61.40
2018-02-21T10:34:34.360Z,60.80
2018-02-21T10:37:01.832Z,48.97
2018-02-21T10:39:29.325Z,57.60
2018-02-21T10:41:56.860Z,53.60
2018-02-21T10:44:24.327Z,51.50
2018-02-21T10:46:51.930Z,47.27
2018-02-21T10:49:19.446Z,47.70
2018-02-21T10:51:46.933Z,50.37
2018-02-21T10:54:14.423Z,50.30
2018-02-21T10:56:42.316Z,47.03
2018-02-21T10:59:09.782Z,49.40
2018-02-21T11:01:37.962Z,43.60
2018-02-21T11:04:05.453Z,37.80
2018-02-21T11:06:32.916Z,37.77
2018-02-21T11:09:00.418Z,39.77
2018-02-21T11:11:27.892Z,37.80
2018-02-21T11:13:55.368Z,40.57
2018-02-21T11:16:22.831Z,37.20
2018-02-21T11:18:50.317Z,33.67
2018-02-21T11:21:17.787Z,33.80
2018-02-21T11:23:45.348Z,33.77
2018-02-21T11:26:12.873Z,34.87
2018-02-21T11:28:40.368Z,39.27
2018-02-21T11:31:07.838Z,37.33
2018-02-21T11:33:35.327Z,31.40
2018-02-21T11:36:02.815Z,32.40
2018-02-21T11:38:30.283Z,32.20
2018-02-21T11:40:57.817Z,33.00
2018-02-21T11:43:25.374Z,32.63
2018-02-21T11:45:52.851Z,30.83
2018-02-21T11:48:20.349Z,28.87
2018-02-21T11:50:47.838Z,26.80
2018-02-21T11:53:15.316Z,32.90
2018-02-21T11:55:42.833Z,24.57
2018-02-21T11:58:10.393Z,29.53
2018-02-21T12:00:37.852Z,26.63
2018-02-21T12:03:05.335Z,29.13
2018-02-21T12:05:32.805Z,29.23
2018-02-21T12:08:00.291Z,28.63
2018-02-21T12:10:27.838Z,26.67
2018-02-21T12:12:55.429Z,28.97
2018-02-21T12:15:22.895Z,25.27
2018-02-21T12:17:50.369Z,29.07
2018-02-21T12:20:17.835Z,27.60
2018-02-21T12:22:45.313Z,28.90
2018-02-21T12:25:12.771Z,24.87
2018-02-21T12:27:40.245Z,32.43
2018-02-21T12:30:07.738Z,24.47
2018-02-21T12:32:36.174Z,27.70
2018-02-21T12:35:03.639Z,23.57
2018-02-21T12:37:31.218Z,29.40
2018-02-21T12:39:59.513Z,26.67
2018-02-21T12:42:27.016Z,29.47
2018-02-21T12:44:54.494Z,25.23
2018-02-21T12:47:22.024Z,23.57
2018-02-21T12:49:49.531Z,24.70
2018-02-21T12:52:17.008Z,25.50
2018-02-21T12:54:44.520Z,24.10
2018-02-21T12:57:12.014Z,29.87
2018-02-21T12:59:39.542Z,22.50
2018-02-21T13:02:07.022Z,22.93
2018-02-21T13:04:34.481Z,23.03
2018-02-21T13:07:01.969Z,27.33
2018-02-21T13:09:29.433Z,25.43
2018-02-21T13:11:56.910Z,27.40
2018-02-21T13:14:24.386Z,25.47
2018-02-21T13:16:51.890Z,25.73
2018-02-21T13:19:19.388Z,24.50
2018-02-21T13:21:46.869Z,28.43
2018-02-21T13:24:14.336Z,24.67
2018-02-21T13:26:41.818Z,29.77
2018-02-21T13:29:09.375Z,30.00
2018-02-21T13:31:37.366Z,32.63
2018-02-21T13:34:04.833Z,30.03
2018-02-21T13:36:32.395Z,24.30
2018-02-21T13:38:59.968Z,27.10
2018-02-21T13:41:27.552Z,26.17
2018-02-21T13:43:55.039Z,23.77
2018-02-21T13:46:22.625Z,23.83
2018-02-21T13:48:50.196Z,24.53
2018-02-21T13:51:17.696Z,28.23
2018-02-21T13:53:45.207Z,27.20
2018-02-21T13:56:12.666Z,28.47
2018-02-21T13:58:40.147Z,30.73
2018-02-21T14:01:07.715Z,26.93
2018-02-21T14:03:35.286Z,27.00
2018-02-21T14:06:02.861Z,24.63
2018-02-21T14:08:30.330Z,29.03
2018-02-21T14:10:57.805Z,30.53
2018-02-21T14:13:25.273Z,26.83
2018-02-21T14:15:52.844Z,24.63
2018-02-21T14:18:20.515Z,28.57
2018-02-21T14:20:48.045Z,23.83
2018-02-21T14:23:15.523Z,28.83
2018-02-21T14:25:43.037Z,20.53
2018-02-21T14:28:10.529Z,26.17
2018-02-21T14:30:38.086Z,19.90
2018-02-21T14:33:05.555Z,25.20
2018-02-21T14:35:33.032Z,22.07
2018-02-21T14:38:00.592Z,18.57
2018-02-21T14:40:28.155Z,19.67
2018-02-21T14:42:55.634Z,26.07
2018-02-21T14:45:23.098Z,24.90
2018-02-21T14:47:50.589Z,17.00
2018-02-21T14:50:18.110Z,16.27
2018-02-21T14:52:45.626Z,19.43
2018-02-21T14:55:13.095Z,19.63
2018-02-21T14:57:40.572Z,21.40
2018-02-21T15:00:08.650Z,22.60
2018-02-21T15:02:36.118Z,17.57
2018-02-21T15:05:03.706Z,20.63
2018-02-21T15:07:31.177Z,18.60
2018-02-21T15:09:58.656Z,17.63
2018-02-21T15:12:26.182Z,26.00
2018-02-21T15:14:53.728Z,25.70
2018-02-21T15:17:21.206Z,21.30
2018-02-21T15:19:48.678Z,23.43
2018-02-21T15:22:16.192Z,18.67
2018-02-21T15:24:43.668Z,19.90
2018-02-21T15:27:11.243Z,16.17
2018-02-21T15:29:38.723Z,20.13
2018-02-21T15:32:06.251Z,16.43
2018-02-21T15:34:33.719Z,15.33
2018-02-21T15:37:01.194Z,20.23
2018-02-21T15:39:28.675Z,19.23
2018-02-21T15:41:56.187Z,12.93
2018-02-21T15:44:23.659Z,14.37
2018-02-21T15:46:51.157Z,12.13
2018-02-21T15:49:18.641Z,14.47
2018-02-21T15:51:46.122Z,11.67
2018-02-21T15:54:13.725Z,14.03
2018-02-21T15:56:41.201Z,14.07
2018-02-21T15:59:08.667Z,12.00
2018-02-21T16:01:37.101Z,13.90
2018-02-21T16:04:04.598Z,10.50
2018-02-21T16:06:32.062Z,14.37
2018-02-21T16:08:59.533Z,13.63
2018-02-21T16:11:27.014Z,14.57
2018-02-21T16:13:54.472Z,17.50
2018-02-21T16:16:21.996Z,12.60
2018-02-21T16:18:49.496Z,14.37
2018-02-21T16:21:16.977Z,13.53
2018-02-21T16:23:44.493Z,17.13
2018-02-21T16:26:12.017Z,14.67
2018-02-21T16:28:39.497Z,14.43
2018-02-21T16:31:07.010Z,18.90
2018-02-21T16:33:34.584Z,17.20
2018-02-21T16:36:02.160Z,13.93
2018-02-21T16:38:29.621Z,18.13
2018-02-21T16:40:57.206Z,15.73
2018-02-21T16:43:24.675Z,16.90
2018-02-21T16:45:52.238Z,14.83
2018-02-21T16:48:19.715Z,17.47
2018-02-21T16:50:47.277Z,19.83
2018-02-21T16:53:14.777Z,15.07
2018-02-21T16:55:42.332Z,19.27
2018-02-21T16:58:09.859Z,18.00
2018-02-21T17:00:37.394Z,20.47
2018-02-21T17:03:04.873Z,18.27
2018-02-21T17:05:32.330Z,18.30
2018-02-21T17:07:59.898Z,18.87
2018-02-21T17:10:27.371Z,20.17
2018-02-21T17:12:54.859Z,18.17
2018-02-21T17:15:22.531Z,21.07
2018-02-21T17:17:50.281Z,18.20
2018-02-21T17:20:17.958Z,20.47
2018-02-21T17:22:45.431Z,19.73
2018-02-21T17:25:12.913Z,17.80
2018-02-21T17:27:40.412Z,21.17
2018-02-21T17:30:07.890Z,24.27
2018-02-21T17:32:35.380Z,23.53
2018-02-21T17:35:02.887Z,22.07
2018-02-21T17:37:30.461Z,21.00
2018-02-21T17:39:57.975Z,23.40
2018-02-21T17:42:25.511Z,17.80
2018-02-21T17:44:53.009Z,23.43
2018-02-21T17:47:20.496Z,25.20
2018-02-21T17:49:48.014Z,32.17
2018-02-21T17:52:15.570Z,25.37
2018-02-21T17:54:43.053Z,23.43
2018-02-21T17:57:10.617Z,23.50
2018-02-21T17:59:38.092Z,25.47
2018-02-21T18:02:05.568Z,31.63
2018-02-21T18:04:33.162Z,23.97
2018-02-21T18:07:00.628Z,28.97
2018-02-21T18:09:28.192Z,29.80
2018-02-21T18:11:56.094Z,25.80
2018-02-21T18:14:23.748Z,22.47
2018-02-21T18:16:51.240Z,25.67
2018-02-21T18:19:18.724Z,23.97
2018-02-21T18:21:50.188Z,28.53
2018-02-21T18:24:17.661Z,23.47
2018-02-21T18:26:45.198Z,24.60
2018-02-21T18:29:12.767Z,23.70
2018-02-21T18:31:40.256Z,25.23
2018-02-21T18:34:07.867Z,23.57
2018-02-21T18:36:35.341Z,21.77
2018-02-21T18:39:02.811Z,29.23
2018-02-21T18:41:30.304Z,28.20
2018-02-21T18:43:57.772Z,24.17
2018-02-21T18:46:25.274Z,26.40
2018-02-21T18:48:52.764Z,27.37
2018-02-21T18:51:20.241Z,25.43
2018-02-21T18:53:47.718Z,25.83
2018-02-21T18:56:15.249Z,24.63
2018-02-21T18:58:42.764Z,26.00
2018-02-21T19:01:10.240Z,32.73
2018-02-21T19:03:37.810Z,30.93
2018-02-21T19:06:05.297Z,27.70
2018-02-21T19:08:32.816Z,25.63
2018-02-21T19:11:00.289Z,28.27
2018-02-21T19:13:27.813Z,28.87
2018-02-21T19:15:55.534Z,29.90
2018-02-21T19:18:23.130Z,31.07
2018-02-21T19:20:50.658Z,29.73
2018-02-21T19:23:18.165Z,39.97
2018-02-21T19:25:45.638Z,34.03
2018-02-21T19:28:13.124Z,29.30
2018-02-21T19:30:40.602Z,31.47
2018-02-21T19:33:08.137Z,32.20
2018-02-21T19:35:35.712Z,29.57
2018-02-21T19:38:03.271Z,27.37
2018-02-21T19:40:30.761Z,28.77
2018-02-21T19:42:58.233Z,27.43
2018-02-21T19:45:25.814Z,31.27
2018-02-21T19:47:53.396Z,28.57
2018-02-21T19:50:20.895Z,26.43
2018-02-21T19:52:48.403Z,28.80
2018-02-21T19:55:15.885Z,23.07
2018-02-21T19:57:43.528Z,27.43
2018-02-21T20:00:11.003Z,27.23
2018-02-21T20:02:38.475Z,22.17
2018-02-21T20:05:05.955Z,23.87
2018-02-21T20:07:33.834Z,22.27
2018-02-21T20:10:01.305Z,28.20
2018-02-21T20:12:28.787Z,28.53
2018-02-21T20:14:56.262Z,28.30
2018-02-21T20:17:23.740Z,27.13
2018-02-21T20:19:51.308Z,23.47
2018-02-21T20:22:18.800Z,24.90
2018-02-21T20:24:46.369Z,23.93
2018-02-21T20:27:13.869Z,23.73
2018-02-21T20:29:41.356Z,24.37
2018-02-21T20:32:08.891Z,28.63
2018-02-21T20:34:36.425Z,23.03
2018-02-21T20:37:03.899Z,21.90
2018-02-21T20:39:31.392Z,29.07
2018-02-21T20:41:58.874Z,26.30
2018-02-21T20:44:26.360Z,28.23
2018-02-21T20:46:53.842Z,32.37
2018-02-21T20:49:21.603Z,35.60
2018-02-21T20:51:49.057Z,28.43
2018-02-21T20:54:16.528Z,26.60
2018-02-21T20:56:44.060Z,29.40
2018-02-21T20:59:11.526Z,27.30
2018-02-21T21:01:39.006Z,33.77
2018-02-21T21:04:06.482Z,25.30
2018-02-21T21:06:33.960Z,26.70
2018-02-21T21:09:01.426Z,30.07
2018-02-21T21:11:28.910Z,26.43
2018-02-21T21:13:56.385Z,29.70
2018-02-21T21:16:23.894Z,25.00
2018-02-21T21:18:52.247Z,29.73
2018-02-21T21:21:19.737Z,24.60
2018-02-21T21:23:47.215Z,24.27
2018-02-21T21:26:14.695Z,24.13
2018-02-21T21:28:42.176Z,26.83
2018-02-21T21:31:09.849Z,24.00
2018-02-21T21:33:37.379Z,26.70
2018-02-21T21:36:04.967Z,27.47
2018-02-21T21:38:32.595Z,27.00
2018-02-21T21:41:00.171Z,25.27
2018-02-21T21:43:27.756Z,30.93
2018-02-21T21:45:55.226Z,25.40
2018-02-21T21:48:22.897Z,27.40
2018-02-21T21:50:50.462Z,28.13
2018-02-21T21:53:17.927Z,22.73
2018-02-21T21:55:45.400Z,24.50
2018-02-21T21:58:12.853Z,28.97
2018-02-21T22:00:40.397Z,26.73
2018-02-21T22:03:07.865Z,27.97
2018-02-21T22:05:35.332Z,27.37
2018-02-21T22:08:02.807Z,25.97
2018-02-21T22:10:30.273Z,30.13
2018-02-21T22:12:57.748Z,28.23
2018-02-21T22:15:25.287Z,28.73
2018-02-21T22:17:52.770Z,25.57
2018-02-21T22:20:20.264Z,24.90
2018-02-21T22:22:47.744Z,28.23
2018-02-21T22:25:15.219Z,31.00
2018-02-21T22:27:42.677Z,26.03
2018-02-21T22:30:10.204Z,27.03
2018-02-21T22:32:37.772Z,32.93
2018-02-21T22:35:07.076Z,30.90
2018-02-21T22:37:34.545Z,29.30
2018-02-21T22:40:02.025Z,22.53
2018-02-21T22:42:29.494Z,24.70
2018-02-21T22:44:57.043Z,28.03
2018-02-21T22:47:24.528Z,32.10
2018-02-21T22:49:52.013Z,29.23
2018-02-21T22:52:19.493Z,33.63
2018-02-21T22:54:46.953Z,28.40
2018-02-21T22:57:14.433Z,28.03
2018-02-21T22:59:41.988Z,30.47
2018-02-21T23:02:09.466Z,31.30
2018-02-21T23:04:36.926Z,29.80
2018-02-21T23:07:04.428Z,27.57
2018-02-21T23:09:31.982Z,29.30
2018-02-21T23:11:59.695Z,29.07
2018-02-21T23:14:27.229Z,31.47
2018-02-21T23:16:54.694Z,27.80
2018-02-21T23:19:22.189Z,30.00
2018-02-21T23:21:49.658Z,26.27
2018-02-21T23:24:17.183Z,38.93
2018-02-21T23:26:44.682Z,31.87
2018-02-21T23:29:12.246Z,34.93
2018-02-21T23:31:39.746Z,28.80
2018-02-21T23:34:07.201Z,29.80
2018-02-21T23:36:34.669Z,27.33
2018-02-21T23:39:02.337Z,29.13
2018-02-21T23:41:29.921Z,27.93
2018-02-21T23:43:57.473Z,28.77
2018-02-21T23:46:24.973Z,32.23
2018-02-21T23:48:52.538Z,30.33
2018-02-21T23:51:20.146Z,31.00
2018-02-21T23:53:47.660Z,35.33
2018-02-21T23:56:15.186Z,30.93
2018-02-21T23:58:42.659Z,31.20
